Time;durP1;ratioP1;P1;durP2;ratioP2;P2;SDS_P1;SDS_P2;PMS_P1;PMS_P2;Temp;Humidity;BMP_temperature;BMP_pressure;BME280_temperature;BME280_humidity;BME280_pressure;Samples;Min_cycle;Max_cycle;Signal;HPM_P1;HPM_P2
2021/08/14 00:00:06;;;;;;;5.82;3.70;;;21.60;71.10;;;;;;2611822;54;20034;-75
2021/08/14 00:02:31;;;;;;;4.63;3.42;;;21.50;71.50;;;;;;2611601;54;20030;-75
2021/08/14 00:04:57;;;;;;;6.60;3.50;;;21.40;71.80;;;;;;2609887;54;20656;-76
2021/08/14 00:07:22;;;;;;;7.07;3.20;;;21.30;71.40;;;;;;2611415;54;20029;-75
2021/08/14 00:09:49;;;;;;;5.72;3.58;;;21.20;71.60;;;;;;2610838;54;20038;-75
2021/08/14 00:12:14;;;;;;;3.72;2.90;;;21.20;70.90;;;;;;2611477;54;20038;-75
2021/08/14 00:14:40;;;;;;;4.40;2.90;;;21.10;71.80;;;;;;2611243;54;20179;-76
2021/08/14 00:17:06;;;;;;;4.47;3.47;;;21.10;72.20;;;;;;2611473;54;20038;-75
2021/08/14 00:19:31;;;;;;;5.85;3.30;;;21.00;72.20;;;;;;2611242;54;20040;-75
2021/08/14 00:21:57;;;;;;;7.78;3.40;;;21.00;72.00;;;;;;2611391;54;20046;-75
2021/08/14 00:24:23;;;;;;;4.78;3.00;;;21.00;72.10;;;;;;2610553;54;20566;-75
2021/08/14 00:26:51;;;;;;;5.22;3.33;;;20.90;71.20;;;;;;2611263;54;20034;-75
2021/08/14 00:29:17;;;;;;;5.85;3.42;;;20.90;71.20;;;;;;2610814;54;20063;-75
2021/08/14 00:31:43;;;;;;;5.05;3.25;;;20.90;70.90;;;;;;2611336;54;20038;-75
2021/08/14 00:34:09;;;;;;;3.63;2.80;;;20.80;70.80;;;;;;2611249;54;20057;-75
2021/08/14 00:36:35;;;;;;;3.42;2.70;;;20.80;70.50;;;;;;2611196;54;20030;-75
2021/08/14 00:39:00;;;;;;;7.57;3.00;;;20.80;71.10;;;;;;2611226;54;20942;-75
2021/08/14 00:41:28;;;;;;;4.18;3.03;;;20.80;71.40;;;;;;2611602;54;20588;-76
2021/08/14 00:43:54;;;;;;;9.63;2.90;;;20.80;70.80;;;;;;2611555;54;20030;-75
2021/08/14 00:46:20;;;;;;;6.75;3.13;;;20.70;70.80;;;;;;2611665;39;20446;-76
2021/08/14 00:48:46;;;;;;;4.90;3.10;;;20.70;70.50;;;;;;2611688;39;20905;-75
2021/08/14 00:51:12;;;;;;;4.50;2.90;;;20.60;70.20;;;;;;2610839;54;20064;-75
2021/08/14 00:53:38;;;;;;;4.80;3.13;;;20.50;70.40;;;;;;2611360;54;20030;-75
2021/08/14 00:56:04;;;;;;;5.00;3.10;;;20.50;70.80;;;;;;2611061;54;20159;-74
2021/08/14 00:58:32;;;;;;;5.03;3.22;;;20.40;70.40;;;;;;2611467;39;20108;-75
2021/08/14 01:00:58;;;;;;;4.32;2.70;;;20.30;71.00;;;;;;2611076;54;20087;-75
2021/08/14 01:03:27;;;;;;;5.13;3.10;;;20.20;71.40;;;;;;2611111;54;20593;-75
2021/08/14 01:05:53;;;;;;;4.20;2.70;;;20.10;71.60;;;;;;2611064;54;20038;-75
2021/08/14 01:08:18;;;;;;;4.70;3.10;;;20.00;71.60;;;;;;2610519;54;20137;-75
2021/08/14 01:10:44;;;;;;;5.07;3.05;;;20.00;72.10;;;;;;2611210;54;20589;-75
2021/08/14 01:13:10;;;;;;;5.43;3.20;;;19.90;72.50;;;;;;2610389;47;20130;-75
2021/08/14 01:15:40;;;;;;;4.80;2.72;;;19.80;72.80;;;;;;2611119;54;20030;-75
2021/08/14 01:18:06;;;;;;;4.43;2.83;;;19.80;72.80;;;;;;2610551;54;20042;-75
2021/08/14 01:20:32;;;;;;;7.70;3.75;;;19.70;72.90;;;;;;2611075;54;20055;-75
2021/08/14 01:22:57;;;;;;;6.13;3.10;;;19.60;73.10;;;;;;2610980;54;20031;-75
2021/08/14 01:25:23;;;;;;;4.07;2.78;;;19.60;73.30;;;;;;2610925;54;20030;-75
2021/08/14 01:27:48;;;;;;;6.53;2.70;;;19.60;73.40;;;;;;2610973;54;20031;-75
2021/08/14 01:30:14;;;;;;;4.28;3.08;;;19.50;73.00;;;;;;2610625;47;20027;-75
2021/08/14 01:32:40;;;;;;;5.25;3.22;;;19.40;73.40;;;;;;2611500;39;20193;-75
2021/08/14 01:35:07;;;;;;;5.40;2.80;;;19.40;74.10;;;;;;2611129;54;20038;-75
2021/08/14 01:37:34;;;;;;;5.57;3.30;;;19.30;73.80;;;;;;2610164;54;20038;-75
2021/08/14 01:40:00;;;;;;;6.32;2.88;;;19.20;74.00;;;;;;2611216;39;20526;-75
2021/08/14 01:42:26;;;;;;;3.92;2.88;;;19.20;74.30;;;;;;2611080;54;20056;-75
2021/08/14 01:44:52;;;;;;;4.93;2.90;;;19.20;74.70;;;;;;2610799;54;20038;-75
2021/08/14 01:47:18;;;;;;;5.43;3.22;;;19.10;74.50;;;;;;2610919;54;20044;-74
2021/08/14 01:49:44;;;;;;;4.40;3.30;;;19.10;74.70;;;;;;2610095;54;20026;-74
2021/08/14 01:52:10;;;;;;;4.45;2.90;;;19.00;74.60;;;;;;2610882;54;20104;-74
2021/08/14 01:54:37;;;;;;;5.72;3.40;;;19.00;75.00;;;;;;2610793;54;20034;-74
2021/08/14 01:57:03;;;;;;;4.88;3.47;;;18.90;75.10;;;;;;2610144;54;20036;-74
2021/08/14 01:59:29;;;;;;;5.13;3.20;;;18.90;75.30;;;;;;2610766;54;20563;-74
2021/08/14 02:01:54;;;;;;;5.68;3.08;;;18.90;75.70;;;;;;2610564;54;20046;-75
2021/08/14 02:04:20;;;;;;;4.18;3.10;;;18.80;76.00;;;;;;2610609;54;21020;-75
2021/08/14 02:06:46;;;;;;;3.50;2.95;;;18.80;76.10;;;;;;2611235;39;20486;-75
2021/08/14 02:09:12;;;;;;;4.18;3.13;;;18.70;76.40;;;;;;2610153;54;20030;-75
2021/08/14 02:11:38;;;;;;;5.32;3.10;;;18.70;76.30;;;;;;2611296;54;20049;-75
2021/08/14 02:14:05;;;;;;;6.75;3.03;;;18.70;76.20;;;;;;2610418;51;20051;-75
2021/08/14 02:16:31;;;;;;;5.00;3.22;;;18.70;76.70;;;;;;2610786;54;20058;-75
2021/08/14 02:18:58;;;;;;;6.15;3.42;;;18.70;76.60;;;;;;2610341;47;20034;-74
2021/08/14 02:21:24;;;;;;;4.93;3.17;;;18.70;76.40;;;;;;2611373;39;20423;-75
2021/08/14 02:23:49;;;;;;;6.57;3.13;;;18.70;76.50;;;;;;2610206;54;20158;-75
2021/08/14 02:26:15;;;;;;;4.50;3.08;;;18.70;76.40;;;;;;2610698;54;20038;-75
2021/08/14 02:28:41;;;;;;;7.07;3.38;;;18.70;76.80;;;;;;2610964;54;20030;-74
2021/08/14 02:31:07;;;;;;;5.28;3.05;;;18.70;76.90;;;;;;2610966;54;20046;-74
2021/08/14 02:33:33;;;;;;;4.35;3.35;;;18.60;77.20;;;;;;2610871;54;20045;-75
2021/08/14 02:36:04;;;;;;;5.07;3.40;;;18.70;77.30;;;;;;2610953;39;20564;-75
2021/08/14 02:38:30;;;;;;;5.18;3.40;;;18.70;77.40;;;;;;2610806;54;20034;-75
2021/08/14 02:40:55;;;;;;;7.75;3.58;;;18.70;77.10;;;;;;2610695;54;20155;-75
2021/08/14 02:43:21;;;;;;;4.85;3.47;;;18.70;77.50;;;;;;2610779;54;20566;-76
2021/08/14 02:45:47;;;;;;;6.65;3.88;;;18.70;77.60;;;;;;2610286;54;20038;-74
2021/08/14 02:48:14;;;;;;;4.80;3.30;;;18.80;77.90;;;;;;2610496;54;20034;-74
2021/08/14 02:50:44;;;;;;;6.38;3.45;;;18.80;77.60;;;;;;2610587;54;20030;-74
2021/08/14 02:53:11;;;;;;;5.97;3.03;;;18.80;77.60;;;;;;2609756;47;20036;-74
2021/08/14 02:55:37;;;;;;;5.00;3.13;;;18.90;77.60;;;;;;2610745;54;20034;-75
2021/08/14 02:58:03;;;;;;;4.25;3.13;;;18.90;78.20;;;;;;2610609;54;20074;-74
2021/08/14 03:00:29;;;;;;;4.65;2.83;;;18.90;78.30;;;;;;2610529;54;20069;-74
2021/08/14 03:02:55;;;;;;;4.75;3.38;;;18.90;78.50;;;;;;2609993;47;20038;-75
2021/08/14 03:05:21;;;;;;;5.25;3.60;;;18.90;78.40;;;;;;2610702;54;20110;-75
2021/08/14 03:07:47;;;;;;;6.93;3.50;;;19.00;78.50;;;;;;2609804;54;20046;-75
2021/08/14 03:10:13;;;;;;;5.43;3.28;;;19.00;78.40;;;;;;2610642;54;20057;-75
2021/08/14 03:12:39;;;;;;;5.65;3.33;;;19.00;78.40;;;;;;2610549;54;20598;-75
2021/08/14 03:15:06;;;;;;;8.65;3.45;;;19.00;78.50;;;;;;2611115;54;20034;-75
2021/08/14 03:17:31;;;;;;;6.28;3.42;;;19.00;78.70;;;;;;2611385;54;20562;-75
2021/08/14 03:19:57;;;;;;;3.80;2.97;;;19.00;78.60;;;;;;2611560;54;20061;-75
2021/08/14 03:22:23;;;;;;;7.13;3.85;;;18.90;78.90;;;;;;2611482;54;20026;-74
2021/08/14 03:24:50;;;;;;;4.38;3.10;;;18.90;79.20;;;;;;2611249;54;20038;-75
2021/08/14 03:27:16;;;;;;;7.63;3.47;;;18.80;79.90;;;;;;2610559;51;20026;-75
2021/08/14 03:29:41;;;;;;;6.38;3.47;;;18.80;80.10;;;;;;2610641;54;20026;-74
2021/08/14 03:32:07;;;;;;;4.78;3.20;;;18.80;80.40;;;;;;2611305;54;20035;-76
2021/08/14 03:34:33;;;;;;;5.45;3.30;;;18.80;80.30;;;;;;2611239;54;20038;-76
2021/08/14 03:36:59;;;;;;;4.07;3.13;;;18.90;80.60;;;;;;2610716;47;20042;-76
2021/08/14 03:39:25;;;;;;;5.80;3.50;;;18.90;80.50;;;;;;2610424;47;20034;-75
2021/08/14 03:41:51;;;;;;;5.20;3.22;;;18.90;80.70;;;;;;2610630;47;20027;-75
2021/08/14 03:44:16;;;;;;;6.70;4.03;;;18.90;80.80;;;;;;2611456;54;20030;-75
2021/08/14 03:46:42;;;;;;;6.07;3.30;;;18.90;80.60;;;;;;2610897;54;20046;-75
2021/08/14 03:49:07;;;;;;;6.10;3.80;;;18.90;80.20;;;;;;2611258;54;20127;-75
2021/08/14 03:51:33;;;;;;;7.85;3.50;;;18.90;80.20;;;;;;2611131;54;20023;-75
2021/08/14 03:53:59;;;;;;;6.88;3.58;;;18.90;80.30;;;;;;2611218;54;21061;-76
2021/08/14 03:56:24;;;;;;;4.25;3.42;;;18.80;80.30;;;;;;2611315;54;20030;-75
2021/08/14 03:58:50;;;;;;;7.88;3.70;;;18.80;80.70;;;;;;2611666;39;20513;-75
2021/08/14 04:01:16;;;;;;;6.80;3.50;;;18.80;81.30;;;;;;2610999;54;20050;-75
2021/08/14 04:03:42;;;;;;;7.55;3.60;;;18.70;81.50;;;;;;2611553;54;20035;-75
2021/08/14 04:06:07;;;;;;;6.25;3.83;;;18.60;81.90;;;;;;2611290;54;20042;-75
2021/08/14 04:08:33;;;;;;;7.38;3.90;;;18.60;82.20;;;;;;2610770;47;20042;-74
2021/08/14 04:10:59;;;;;;;9.80;4.05;;;18.60;82.40;;;;;;2611355;54;20125;-75
2021/08/14 04:13:24;;;;;;;6.18;3.97;;;18.60;82.40;;;;;;2611482;54;20038;-75
2021/08/14 04:15:51;;;;;;;5.22;3.58;;;18.60;82.40;;;;;;2611152;54;20034;-76
2021/08/14 04:18:17;;;;;;;5.80;3.60;;;18.60;82.30;;;;;;2611405;54;20983;-76
2021/08/14 04:20:42;;;;;;;5.30;3.58;;;18.50;81.80;;;;;;2611379;54;20030;-75
2021/08/14 04:23:08;;;;;;;6.00;3.80;;;18.50;81.70;;;;;;2611168;54;20059;-75
2021/08/14 04:25:34;;;;;;;5.30;3.80;;;18.50;82.00;;;;;;2610840;54;20826;-74
2021/08/14 04:27:59;;;;;;;6.80;3.38;;;18.50;82.10;;;;;;2611156;54;20153;-75
2021/08/14 04:30:25;;;;;;;7.95;3.78;;;18.50;82.20;;;;;;2611093;54;20041;-75
2021/08/14 04:32:51;;;;;;;4.70;3.80;;;18.40;82.30;;;;;;2610764;54;20035;-75
2021/08/14 04:35:17;;;;;;;4.68;3.33;;;18.40;82.30;;;;;;2611095;54;20042;-75
2021/08/14 04:37:44;;;;;;;8.35;3.97;;;18.40;82.10;;;;;;2611122;54;20055;-75
2021/08/14 04:40:14;;;;;;;6.53;3.17;;;18.40;82.40;;;;;;2610872;54;20037;-74
2021/08/14 04:42:40;;;;;;;4.50;3.10;;;18.40;82.60;;;;;;2610975;54;20102;-74
2021/08/14 04:45:06;;;;;;;5.55;4.03;;;18.40;82.70;;;;;;2611214;54;20046;-75
2021/08/14 04:47:32;;;;;;;6.10;3.47;;;18.40;82.90;;;;;;2611145;54;20059;-75
2021/08/14 04:49:58;;;;;;;6.20;4.10;;;18.40;83.10;;;;;;2611961;39;20467;-75
2021/08/14 04:52:24;;;;;;;5.85;3.90;;;18.40;83.30;;;;;;2611374;54;20026;-75
2021/08/14 04:54:49;;;;;;;4.38;3.03;;;18.40;83.40;;;;;;2611433;54;20031;-75
2021/08/14 04:57:16;;;;;;;7.75;4.10;;;18.40;83.70;;;;;;2611459;54;20542;-75
2021/08/14 04:59:41;;;;;;;8.15;3.67;;;18.40;83.70;;;;;;2611502;54;20030;-75
2021/08/14 05:02:07;;;;;;;5.50;3.72;;;18.40;83.40;;;;;;2610682;54;20063;-75
2021/08/14 05:04:33;;;;;;;6.60;3.60;;;18.40;83.60;;;;;;2610722;54;20026;-75
2021/08/14 05:07:00;;;;;;;7.53;3.53;;;18.40;83.70;;;;;;2611606;39;20416;-75
2021/08/14 05:09:26;;;;;;;5.38;3.63;;;18.40;83.90;;;;;;2610562;54;20038;-75
2021/08/14 05:11:52;;;;;;;6.30;4.00;;;18.40;83.90;;;;;;2610456;47;20554;-75
2021/08/14 05:14:18;;;;;;;5.70;3.30;;;18.50;84.00;;;;;;2611015;54;20034;-75
2021/08/14 05:16:44;;;;;;;7.55;3.78;;;18.50;84.20;;;;;;2611127;54;20045;-75
2021/08/14 05:19:10;;;;;;;9.07;3.78;;;18.50;84.20;;;;;;2611045;54;20062;-75
2021/08/14 05:21:36;;;;;;;7.60;3.63;;;18.60;84.00;;;;;;2611102;54;20566;-75
2021/08/14 05:24:03;;;;;;;8.25;3.83;;;18.60;83.80;;;;;;2610867;54;20023;-74
2021/08/14 05:26:32;;;;;;;7.65;4.20;;;18.60;83.70;;;;;;2611058;54;20045;-77
2021/08/14 05:28:57;;;;;;;5.57;4.22;;;18.60;83.70;;;;;;2610381;54;20030;-76
2021/08/14 05:31:23;;;;;;;5.70;3.80;;;18.60;83.60;;;;;;2610361;54;20072;-77
2021/08/14 05:33:49;;;;;;;4.90;3.00;;;18.70;83.50;;;;;;2611162;31;20525;-75
2021/08/14 05:36:15;;;;;;;5.57;3.45;;;18.70;83.50;;;;;;2610882;54;20034;-75
2021/08/14 05:38:41;;;;;;;7.20;3.90;;;18.70;83.50;;;;;;2610336;54;20031;-75
2021/08/14 05:41:06;;;;;;;5.93;3.90;;;18.80;83.30;;;;;;2610764;39;20791;-75
2021/08/14 05:43:32;;;;;;;4.35;3.03;;;18.80;83.50;;;;;;2610568;54;20121;-75
2021/08/14 05:45:58;;;;;;;5.63;3.28;;;18.90;83.50;;;;;;2611057;54;20578;-76
2021/08/14 05:48:24;;;;;;;6.95;3.55;;;18.90;83.70;;;;;;2611019;54;20035;-75
2021/08/14 05:50:50;;;;;;;6.53;3.63;;;19.00;83.70;;;;;;2611129;54;20099;-75
2021/08/14 05:53:17;;;;;;;6.40;3.25;;;19.00;83.60;;;;;;2611432;39;20775;-75
2021/08/14 05:55:43;;;;;;;7.00;3.90;;;19.10;83.80;;;;;;2611000;54;20073;-75
2021/08/14 05:58:09;;;;;;;7.38;3.88;;;19.30;83.20;;;;;;2610973;54;20039;-74
2021/08/14 06:00:35;;;;;;;6.43;3.33;;;19.60;82.00;;;;;;2610483;54;20057;-75
2021/08/14 06:03:01;;;;;;;6.55;3.22;;;19.80;82.20;;;;;;2610432;54;20039;-74
2021/08/14 06:05:26;;;;;;;11.57;3.90;;;20.00;81.80;;;;;;2610282;54;20057;-75
2021/08/14 06:07:52;;;;;;;12.25;4.05;;;20.20;79.60;;;;;;2610183;54;20145;-74
2021/08/14 06:10:19;;;;;;;6.57;3.42;;;20.40;76.00;;;;;;2609898;54;20147;-75
2021/08/14 06:12:45;;;;;;;8.55;3.40;;;20.50;76.40;;;;;;2610231;54;20930;-75
2021/08/14 06:15:12;;;;;;;6.75;3.60;;;20.70;74.20;;;;;;2610043;54;20130;-77
2021/08/14 06:17:38;;;;;;;7.93;3.70;;;20.80;74.70;;;;;;2609561;54;20105;-77
2021/08/14 06:20:05;;;;;;;6.43;3.40;;;20.90;75.30;;;;;;2610182;54;20042;-77
2021/08/14 06:22:30;;;;;;;5.13;3.22;;;20.90;74.80;;;;;;2609308;54;20121;-77
2021/08/14 06:24:56;;;;;;;6.88;3.13;;;21.00;74.60;;;;;;2609143;54;20570;-76
2021/08/14 06:27:22;;;;;;;7.28;3.30;;;21.00;72.30;;;;;;2609424;54;20046;-76
2021/08/14 06:29:48;;;;;;;7.18;3.63;;;21.00;73.10;;;;;;2609413;54;20035;-79
2021/08/14 06:32:14;;;;;;;9.43;3.83;;;21.10;72.10;;;;;;2609718;54;20030;-79
2021/08/14 06:34:39;;;;;;;7.57;3.60;;;21.10;73.20;;;;;;2610544;54;20030;-79
2021/08/14 06:37:06;;;;;;;8.45;3.00;;;21.10;72.30;;;;;;2611414;39;20752;-78
2021/08/14 06:39:32;;;;;;;7.72;3.35;;;21.10;72.30;;;;;;2611010;54;20034;-79
2021/08/14 06:41:57;;;;;;;10.27;3.58;;;21.20;71.60;;;;;;2610614;54;20030;-78
2021/08/14 06:44:23;;;;;;;6.88;3.38;;;21.20;71.50;;;;;;2609115;54;20034;-79
2021/08/14 06:46:49;;;;;;;7.25;2.97;;;21.40;71.40;;;;;;2609881;54;20889;-81
2021/08/14 06:49:14;;;;;;;8.15;3.38;;;21.50;70.50;;;;;;2609409;39;20537;-74
2021/08/14 06:51:40;;;;;;;6.45;3.28;;;21.60;70.00;;;;;;2609068;54;20129;-75
2021/08/14 06:54:07;;;;;;;7.63;3.50;;;21.80;69.60;;;;;;2609891;54;20034;-75
2021/08/14 06:56:33;;;;;;;8.45;3.78;;;21.80;68.20;;;;;;2609277;54;20114;-75
2021/08/14 06:58:59;;;;;;;5.10;2.78;;;21.80;68.60;;;;;;2609847;39;20583;-75
2021/08/14 07:01:25;;;;;;;5.63;2.70;;;21.80;70.10;;;;;;2609151;54;20022;-75
2021/08/14 07:03:51;;;;;;;7.25;3.05;;;21.90;70.90;;;;;;2608745;54;20031;-75
2021/08/14 07:06:24;;;;;;;8.15;2.70;;;21.90;70.60;;;;;;2608614;54;20978;-75
2021/08/14 07:08:50;;;;;;;6.95;2.60;;;22.00;68.00;;;;;;2608940;54;20185;-74
2021/08/14 07:11:17;;;;;;;7.03;3.13;;;22.10;68.00;;;;;;2609503;54;20146;-73
2021/08/14 07:13:43;;;;;;;7.30;2.72;;;22.20;68.40;;;;;;2608756;47;20034;-74
2021/08/14 07:16:09;;;;;;;8.55;2.97;;;22.30;67.80;;;;;;2609795;54;20590;-73
2021/08/14 07:18:35;;;;;;;8.80;2.92;;;22.40;66.40;;;;;;2609224;54;20526;-73
2021/08/14 07:21:01;;;;;;;5.05;2.78;;;22.50;65.60;;;;;;2609112;54;20034;-73
2021/08/14 07:23:27;;;;;;;6.65;2.80;;;22.50;66.10;;;;;;2609352;54;20676;-74
2021/08/14 07:25:53;;;;;;;7.20;2.38;;;22.50;65.90;;;;;;2609767;39;20524;-74
2021/08/14 07:28:19;;;;;;;8.65;3.20;;;22.50;66.00;;;;;;2609331;54;20186;-78
2021/08/14 07:30:46;;;;;;;6.97;2.70;;;22.50;65.90;;;;;;2608610;54;20158;-80
2021/08/14 07:33:12;;;;;;;10.00;2.95;;;22.60;65.10;;;;;;2609957;54;20030;-78
2021/08/14 07:35:38;;;;;;;7.32;2.85;;;22.60;63.70;;;;;;2609479;54;20072;-76
2021/08/14 07:38:04;;;;;;;5.80;2.65;;;22.60;65.00;;;;;;2609605;54;20562;-73
2021/08/14 07:40:29;;;;;;;8.82;2.88;;;22.60;65.60;;;;;;2609622;54;20042;-73
2021/08/14 07:42:57;;;;;;;7.22;2.85;;;22.60;65.00;;;;;;2609589;54;20574;-75
2021/08/14 07:45:24;;;;;;;10.95;3.15;;;22.60;64.70;;;;;;2609127;54;20034;-75
2021/08/14 07:47:50;;;;;;;9.13;3.22;;;22.60;64.00;;;;;;2609330;54;20043;-73
2021/08/14 07:50:18;;;;;;;12.75;4.03;;;22.70;64.00;;;;;;2609613;39;20431;-76
2021/08/14 07:52:44;;;;;;;15.07;3.70;;;22.70;64.00;;;;;;2609539;54;20046;-77
2021/08/14 07:55:11;;;;;;;8.73;3.42;;;22.70;63.20;;;;;;2609987;54;20154;-74
2021/08/14 07:57:42;;;;;;;14.63;3.88;;;22.70;63.30;;;;;;2608744;54;20037;-75
2021/08/14 08:00:10;;;;;;;5.95;2.78;;;22.70;63.80;;;;;;2610063;54;20149;-71
2021/08/14 08:02:39;;;;;;;10.82;3.95;;;22.70;64.60;;;;;;2610334;54;20038;-74
2021/08/14 08:05:06;;;;;;;12.75;4.25;;;22.80;64.90;;;;;;2610058;39;20174;-73
2021/08/14 08:07:32;;;;;;;10.23;3.05;;;22.80;62.90;;;;;;2610319;54;20034;-73
2021/08/14 08:09:58;;;;;;;13.18;3.00;;;22.80;63.10;;;;;;2610516;54;20950;-76
2021/08/14 08:12:24;;;;;;;9.23;3.15;;;22.80;64.10;;;;;;2610589;54;20026;-74
2021/08/14 08:14:50;;;;;;;13.40;3.08;;;22.90;62.70;;;;;;2610016;54;20034;-74
2021/08/14 08:17:16;;;;;;;7.38;2.40;;;23.00;63.20;;;;;;2610308;54;20069;-73
2021/08/14 08:19:41;;;;;;;7.63;2.55;;;23.10;61.50;;;;;;2609956;54;20031;-74
2021/08/14 08:22:07;;;;;;;7.10;2.83;;;23.20;59.40;;;;;;2610360;54;20035;-75
2021/08/14 08:24:33;;;;;;;5.93;2.72;;;23.20;60.30;;;;;;2609811;47;20022;-77
2021/08/14 08:26:59;;;;;;;13.25;3.00;;;23.20;60.00;;;;;;2610465;54;20076;-75
2021/08/14 08:29:24;;;;;;;10.88;2.75;;;23.30;59.70;;;;;;2609965;47;20030;-75
2021/08/14 08:31:50;;;;;;;6.72;2.60;;;23.30;60.10;;;;;;2610444;54;20036;-75
2021/08/14 08:34:16;;;;;;;7.50;2.70;;;23.30;59.90;;;;;;2610572;54;20034;-76
2021/08/14 08:36:42;;;;;;;7.72;2.90;;;23.30;59.60;;;;;;2609584;47;20030;-75
2021/08/14 08:39:07;;;;;;;7.15;2.88;;;23.40;60.90;;;;;;2610412;54;20038;-76
2021/08/14 08:41:33;;;;;;;5.10;2.55;;;23.40;58.90;;;;;;2610474;54;20030;-75
2021/08/14 08:43:59;;;;;;;9.48;3.00;;;23.40;59.40;;;;;;2610933;54;20154;-76
2021/08/14 08:46:27;;;;;;;9.13;2.67;;;23.40;59.80;;;;;;2610897;54;20100;-75
2021/08/14 08:48:53;;;;;;;11.27;3.10;;;23.40;60.00;;;;;;2609824;47;20905;-74
2021/08/14 08:51:28;;;;;;;8.65;3.25;;;23.50;59.80;;;;;;2610266;54;20054;-74
2021/08/14 08:53:54;;;;;;;7.25;2.50;;;23.40;59.00;;;;;;2609801;54;20042;-74
2021/08/14 08:56:20;;;;;;;6.22;2.72;;;23.50;60.10;;;;;;2610308;54;20065;-74
2021/08/14 08:58:45;;;;;;;7.75;3.00;;;23.50;58.00;;;;;;2609469;54;20035;-74
2021/08/14 09:01:11;;;;;;;7.47;2.33;;;23.50;58.30;;;;;;2610207;54;20046;-75
2021/08/14 09:03:37;;;;;;;9.30;2.53;;;23.50;57.20;;;;;;2609305;54;20034;-75
2021/08/14 09:06:02;;;;;;;11.52;3.13;;;23.50;57.90;;;;;;2608971;54;20027;-75
2021/08/14 09:08:28;;;;;;;6.65;2.33;;;23.50;58.80;;;;;;2609477;54;20031;-75
2021/08/14 09:11:14;;;;;;;8.35;2.92;;;23.60;57.90;;;;;;2609463;54;20041;-75
2021/08/14 09:14:01;;;;;;;6.32;2.60;;;23.70;56.90;;;;;;2609475;54;20045;-75
2021/08/14 09:16:26;;;;;;;7.20;2.90;;;23.70;57.50;;;;;;2610095;54;20062;-75
2021/08/14 09:18:57;;;;;;;8.10;2.55;;;23.90;56.40;;;;;;2608627;47;20838;-74
2021/08/14 09:21:30;;;;;;;8.13;3.10;;;23.90;57.30;;;;;;2609944;54;20043;-75
2021/08/14 09:23:56;;;;;;;5.50;2.58;;;24.00;56.90;;;;;;2609671;54;20038;-75
2021/08/14 09:26:22;;;;;;;6.82;2.38;;;24.00;57.80;;;;;;2609922;54;20183;-75
2021/08/14 09:29:02;;;;;;;7.97;2.60;;;24.20;58.20;;;;;;2609196;54;20038;-75
2021/08/14 09:31:45;;;;;;;4.32;2.50;;;24.40;55.40;;;;;;2610298;54;20046;-75
2021/08/14 09:34:15;;;;;;;3.25;2.10;;;24.50;54.90;;;;;;2609543;54;20662;-75
2021/08/14 09:36:41;;;;;;;4.63;2.15;;;24.60;55.60;;;;;;2610108;54;20034;-75
2021/08/14 09:39:07;;;;;;;10.35;2.65;;;24.60;54.70;;;;;;2609878;54;20153;-75
2021/08/14 09:41:33;;;;;;;6.00;2.65;;;24.60;55.90;;;;;;2609793;54;20054;-73
2021/08/14 09:43:58;;;;;;;6.63;2.40;;;24.60;56.20;;;;;;2610334;54;20030;-76
2021/08/14 09:46:40;;;;;;;5.47;2.50;;;24.70;55.80;;;;;;2609228;54;20034;-76
2021/08/14 09:49:06;;;;;;;5.50;2.72;;;24.80;55.60;;;;;;2610099;54;20035;-79
2021/08/14 09:51:33;;;;;;;7.50;2.53;;;25.00;54.40;;;;;;2609196;47;20040;-76
2021/08/14 09:54:01;;;;;;;8.98;2.88;;;25.20;54.70;;;;;;2609940;54;20030;-76
2021/08/14 09:56:32;;;;;;;5.72;2.10;;;25.30;53.30;;;;;;2610065;54;20026;-76
2021/08/14 09:58:58;;;;;;;5.10;2.03;;;25.30;51.60;;;;;;2609370;47;20164;-76
2021/08/14 10:01:25;;;;;;;5.57;2.33;;;25.30;51.80;;;;;;2610267;54;20118;-76
2021/08/14 10:03:52;;;;;;;4.95;2.03;;;25.40;53.90;;;;;;2609631;54;20098;-77
2021/08/14 10:06:19;;;;;;;7.68;2.30;;;25.50;51.70;;;;;;2609829;54;20070;-76
2021/08/14 10:08:44;;;;;;;4.72;1.95;;;25.50;51.10;;;;;;2609962;39;20785;-76
2021/08/14 10:11:12;;;;;;;6.47;2.30;;;25.50;51.20;;;;;;2609623;54;20031;-76
2021/08/14 10:13:41;;;;;;;5.82;2.50;;;25.50;50.80;;;;;;2609566;54;20931;-76
2021/08/14 10:16:09;;;;;;;7.82;2.58;;;25.40;51.10;;;;;;2609107;47;20057;-76
2021/08/14 10:18:37;;;;;;;6.90;1.92;;;25.40;50.70;;;;;;2609013;54;20030;-76
2021/08/14 10:21:03;;;;;;;6.05;2.53;;;25.30;50.40;;;;;;2608500;54;20126;-75
2021/08/14 10:23:30;;;;;;;8.05;2.63;;;25.20;48.90;;;;;;2609447;54;20038;-76
2021/08/14 10:26:09;;;;;;;3.63;2.15;;;25.10;50.30;;;;;;2608887;47;20034;-76
2021/08/14 10:28:51;;;;;;;5.78;2.50;;;25.10;52.10;;;;;;2609661;54;20084;-76
2021/08/14 10:31:35;;;;;;;6.03;2.05;;;25.20;50.90;;;;;;2609885;39;20873;-75
2021/08/14 10:34:12;;;;;;;3.30;2.13;;;25.30;49.60;;;;;;2608701;39;20734;-76
2021/08/14 10:36:40;;;;;;;6.40;2.08;;;25.30;49.90;;;;;;2609326;54;20645;-76
2021/08/14 10:39:18;;;;;;;6.10;2.10;;;25.30;49.70;;;;;;2608814;54;20045;-76
2021/08/14 10:41:45;;;;;;;5.72;2.40;;;25.20;50.60;;;;;;2609441;54;20042;-76
2021/08/14 10:44:11;;;;;;;6.03;2.53;;;25.30;50.90;;;;;;2609572;54;20053;-76
2021/08/14 10:46:44;;;;;;;4.35;2.35;;;25.30;52.20;;;;;;2609672;54;20046;-76
2021/08/14 10:49:33;;;;;;;6.07;2.10;;;25.30;50.50;;;;;;2608849;54;20058;-76
2021/08/14 10:52:01;;;;;;;3.65;2.28;;;25.50;49.70;;;;;;2609153;54;20041;-76
2021/08/14 10:54:27;;;;;;;3.95;2.17;;;25.50;50.10;;;;;;2609374;54;20043;-76
2021/08/14 10:57:00;;;;;;;8.38;2.80;;;25.60;48.70;;;;;;2609051;54;20150;-76
2021/08/14 10:59:38;;;;;;;6.10;2.20;;;25.60;50.50;;;;;;2610780;39;20878;-75
2021/08/14 11:02:09;;;;;;;4.63;2.40;;;25.60;49.60;;;;;;2609867;39;20261;-77
2021/08/14 11:04:37;;;;;;;5.13;2.30;;;25.60;49.50;;;;;;2609852;54;20042;-76
2021/08/14 11:07:21;;;;;;;6.00;2.60;;;25.60;50.10;;;;;;2610549;54;20170;-77
2021/08/14 11:09:52;;;;;;;7.70;2.20;;;25.80;48.20;;;;;;2609138;39;20735;-76
2021/08/14 11:12:44;;;;;;;5.55;2.20;;;25.90;48.20;;;;;;2608439;47;20062;-70
2021/08/14 11:15:21;;;;;;;5.95;2.15;;;25.90;49.10;;;;;;2607200;54;20067;-71
2021/08/14 11:17:59;;;;;;;4.75;2.22;;;25.90;48.40;;;;;;2609772;54;20038;-76
2021/08/14 11:20:25;;;;;;;6.95;2.22;;;25.80;49.30;;;;;;2609852;54;20129;-76
2021/08/14 11:22:59;;;;;;;5.80;2.28;;;25.80;49.10;;;;;;2609053;54;20042;-76
2021/08/14 11:25:31;;;;;;;5.43;2.20;;;25.70;49.50;;;;;;2608088;47;20076;-75
2021/08/14 11:28:01;;;;;;;4.18;2.60;;;25.80;51.20;;;;;;2608005;54;20041;-76
2021/08/14 11:30:33;;;;;;;4.18;2.30;;;25.90;48.60;;;;;;2609247;54;20039;-75
2021/08/14 11:32:59;;;;;;;5.35;2.50;;;26.00;47.80;;;;;;2609309;54;20034;-75
2021/08/14 11:35:25;;;;;;;6.22;2.70;;;26.00;48.90;;;;;;2609716;39;20553;-74
2021/08/14 11:37:56;;;;;;;6.85;3.42;;;26.00;48.30;;;;;;2609872;54;20050;-75
2021/08/14 11:40:33;;;;;;;3.30;2.38;;;26.10;48.70;;;;;;2609659;54;20054;-75
2021/08/14 11:43:00;;;;;;;5.38;2.53;;;26.10;48.80;;;;;;2610341;54;20045;-75
2021/08/14 11:45:27;;;;;;;5.18;2.40;;;26.10;45.50;;;;;;2609817;54;20038;-78
2021/08/14 11:48:00;;;;;;;4.68;2.05;;;26.00;46.50;;;;;;2609834;54;20157;-76
2021/08/14 11:50:40;;;;;;;5.60;2.60;;;25.80;45.80;;;;;;2610171;54;20050;-76
2021/08/14 11:53:08;;;;;;;5.57;2.40;;;25.80;46.00;;;;;;2610138;54;20035;-74
2021/08/14 11:55:34;;;;;;;7.68;2.20;;;25.80;44.70;;;;;;2610263;39;20443;-75
2021/08/14 11:58:00;;;;;;;6.15;3.05;;;26.00;46.20;;;;;;2609699;54;20034;-74
2021/08/14 12:00:34;;;;;;;6.47;2.38;;;26.10;45.10;;;;;;2609378;54;20038;-80
2021/08/14 12:03:09;;;;;;;9.20;2.83;;;26.20;46.00;;;;;;2609831;54;20086;-74
2021/08/14 12:05:40;;;;;;;6.40;2.43;;;26.40;45.60;;;;;;2610391;54;20039;-75
2021/08/14 12:08:07;;;;;;;5.53;2.70;;;26.40;43.10;;;;;;2609504;39;20755;-74
2021/08/14 12:10:34;;;;;;;6.30;2.70;;;26.50;44.00;;;;;;2608889;54;20035;-74
2021/08/14 12:13:02;;;;;;;4.28;2.20;;;26.50;43.70;;;;;;2610005;54;20664;-73
2021/08/14 12:15:43;;;;;;;8.00;2.60;;;26.50;44.40;;;;;;2609743;54;20676;-75
2021/08/14 12:18:10;;;;;;;5.28;2.67;;;26.40;44.80;;;;;;2610005;54;20041;-74
2021/08/14 12:20:41;;;;;;;5.15;2.53;;;26.30;45.40;;;;;;2609461;54;20053;-74
2021/08/14 12:23:30;;;;;;;7.15;2.67;;;26.30;46.00;;;;;;2609310;39;20178;-74
2021/08/14 12:25:58;;;;;;;5.55;2.30;;;26.40;46.00;;;;;;2609971;54;20051;-75
2021/08/14 12:28:32;;;;;;;5.95;2.65;;;26.40;44.30;;;;;;2609751;39;20538;-74
2021/08/14 12:31:00;;;;;;;7.60;2.58;;;26.40;43.40;;;;;;2609889;54;20035;-74
2021/08/14 12:33:31;;;;;;;5.85;2.42;;;26.40;45.10;;;;;;2608721;54;20042;-75
2021/08/14 12:36:06;;;;;;;5.07;2.60;;;26.40;47.20;;;;;;2609592;54;20038;-75
2021/08/14 12:38:45;;;;;;;4.88;2.47;;;26.50;45.50;;;;;;2609534;54;20038;-74
2021/08/14 12:41:18;;;;;;;6.03;2.88;;;26.40;46.30;;;;;;2609348;54;20034;-74
2021/08/14 12:43:50;;;;;;;6.68;2.88;;;26.20;45.50;;;;;;2610116;54;20559;-75
2021/08/14 12:46:17;;;;;;;6.65;2.88;;;26.00;46.70;;;;;;2609512;54;20171;-75